Terminal Aerodrome Forecast
Issued by NWS Jackson, MS

Home | Current Version | Previous Version | Text Only | Print | Product List | Glossary On
Versions: 1 2 3 4 5 6 7 8 9 10 11 12 13 14 15 16 17
000
FTUS44 KJAN 301858 AAA
TAFHBG
TAF AMD
KHBG 301858Z 3019/0118 13005KT P6SM VCSH FEW010 BKN100
     FM302000 24008KT P6SM VCTS BKN040CB OVC250
     FM302300 26006KT P6SM VCSH SCT060 OVC250
     FM011500 26009KT P6SM SCT250=

USA.gov is the U.S. government's official web portal to all federal, state and local government web resources and services.